createdAt,value
2023-01-07T00:00:53.883Z,2.90
2023-01-07T00:03:21.906Z,2.37
2023-01-07T00:05:49.864Z,2.40
2023-01-07T00:08:17.771Z,2.43
2023-01-07T00:10:47.128Z,2.63
2023-01-07T00:13:15.036Z,3.23
2023-01-07T00:15:42.988Z,3.10
2023-01-07T00:18:10.941Z,3.70
2023-01-07T00:20:38.846Z,4.37
2023-01-07T00:23:06.780Z,2.97
2023-01-07T00:25:34.715Z,3.97
2023-01-07T00:28:04.835Z,3.10
2023-01-07T00:30:32.815Z,2.93
2023-01-07T00:33:05.148Z,2.60
2023-01-07T00:35:34.320Z,3.10
2023-01-07T00:38:02.296Z,2.37
2023-01-07T00:40:31.443Z,3.03
2023-01-07T00:43:02.461Z,3.27
2023-01-07T00:45:33.500Z,3.83
2023-01-07T00:48:02.212Z,2.87
2023-01-07T00:50:31.325Z,2.60
2023-01-07T00:52:59.261Z,3.40
2023-01-07T00:55:27.282Z,3.00
2023-01-07T00:57:55.300Z,2.50
2023-01-07T01:00:24.117Z,2.57
2023-01-07T01:02:53.553Z,2.40
2023-01-07T01:05:21.736Z,2.80
2023-01-07T01:07:49.788Z,3.33
2023-01-07T01:10:19.417Z,3.10
2023-01-07T01:12:49.372Z,3.03
2023-01-07T01:15:17.558Z,3.17
2023-01-07T01:17:45.464Z,4.47
2023-01-07T01:20:15.833Z,2.50
2023-01-07T01:22:43.817Z,4.57
2023-01-07T01:25:11.929Z,2.63
2023-01-07T01:27:39.908Z,2.83
2023-01-07T01:30:08.959Z,2.57
2023-01-07T01:32:36.922Z,3.63
2023-01-07T01:35:05.158Z,3.47
2023-01-07T01:37:34.487Z,3.20
2023-01-07T01:40:04.023Z,3.20
2023-01-07T01:42:32.300Z,2.93
2023-01-07T01:45:00.856Z,3.03
2023-01-07T01:47:33.767Z,2.20
2023-01-07T01:50:03.701Z,2.80
2023-01-07T01:52:34.559Z,3.03
2023-01-07T01:55:04.865Z,3.20
2023-01-07T01:57:33.118Z,2.37
2023-01-07T02:00:01.094Z,3.43
2023-01-07T02:02:31.003Z,3.53
2023-01-07T02:04:59.025Z,2.93
2023-01-07T02:07:27.051Z,2.27
2023-01-07T02:10:00.067Z,2.67
2023-01-07T02:12:36.178Z,2.27
2023-01-07T02:15:09.740Z,2.17
2023-01-07T02:17:47.481Z,2.57
2023-01-07T02:20:35.594Z,2.30
2023-01-07T02:23:45.904Z,2.30
2023-01-07T02:26:45.164Z,2.40
2023-01-07T02:29:45.265Z,2.87
2023-01-07T02:32:23.866Z,2.80
2023-01-07T02:34:56.245Z,3.40
2023-01-07T02:37:26.785Z,3.60
2023-01-07T02:39:58.012Z,2.80
2023-01-07T02:42:30.231Z,3.03
2023-01-07T02:45:02.357Z,3.30
2023-01-07T02:47:34.001Z,3.37
2023-01-07T02:50:01.949Z,2.70
2023-01-07T02:52:30.507Z,3.10
2023-01-07T02:54:59.675Z,4.37
2023-01-07T02:57:41.861Z,2.80
2023-01-07T03:00:17.941Z,3.10
2023-01-07T03:02:59.580Z,3.50
2023-01-07T03:05:50.262Z,3.13
2023-01-07T03:08:32.076Z,4.00
2023-01-07T03:11:00.606Z,4.40
2023-01-07T03:13:30.601Z,3.37
2023-01-07T03:16:01.373Z,3.83
2023-01-07T03:18:31.428Z,4.20
2023-01-07T03:21:00.861Z,3.23
2023-01-07T03:23:29.025Z,4.10
2023-01-07T03:25:57.047Z,3.70
2023-01-07T03:28:27.251Z,4.20
2023-01-07T03:30:55.204Z,3.97
2023-01-07T03:33:25.554Z,3.70
2023-01-07T03:35:54.914Z,4.50
2023-01-07T03:38:23.048Z,3.63
2023-01-07T03:40:51.059Z,4.57
2023-01-07T03:43:18.794Z,4.10
2023-01-07T03:45:46.852Z,5.70
2023-01-07T03:48:14.840Z,4.70
2023-01-07T03:50:42.834Z,4.93
2023-01-07T03:53:12.201Z,5.10
2023-01-07T03:55:40.161Z,5.40
2023-01-07T03:58:08.187Z,6.70
2023-01-07T04:00:36.118Z,5.80
2023-01-07T04:03:04.038Z,5.80
2023-01-07T04:05:31.984Z,6.23
2023-01-07T04:08:00.149Z,5.73
2023-01-07T04:10:29.483Z,4.57
2023-01-07T04:12:57.433Z,6.33
2023-01-07T04:15:25.367Z,4.80
2023-01-07T04:17:53.274Z,5.20
2023-01-07T04:20:21.197Z,5.43
2023-01-07T04:22:49.241Z,5.47
2023-01-07T04:25:17.253Z,4.60
2023-01-07T04:27:46.660Z,5.67
2023-01-07T04:30:14.804Z,5.10
2023-01-07T04:32:42.738Z,4.50
2023-01-07T04:35:10.785Z,5.00
2023-01-07T04:37:38.743Z,6.03
2023-01-07T04:40:07.943Z,5.90
2023-01-07T04:42:35.847Z,6.20
2023-01-07T04:45:05.752Z,5.87
2023-01-07T04:47:33.702Z,5.47
2023-01-07T04:50:01.699Z,6.03
2023-01-07T04:52:29.700Z,6.93
2023-01-07T04:54:57.624Z,6.27
2023-01-07T04:57:25.563Z,8.43
2023-01-07T04:59:53.516Z,6.67
2023-01-07T05:02:23.060Z,6.17
2023-01-07T05:04:51.023Z,7.23
2023-01-07T05:07:18.971Z,7.60
2023-01-07T05:09:46.944Z,7.93
2023-01-07T05:12:14.910Z,9.80
2023-01-07T05:14:42.866Z,8.13
2023-01-07T05:17:10.789Z,7.07
2023-01-07T05:19:40.087Z,7.53
2023-01-07T05:22:08.063Z,6.70
2023-01-07T05:24:36.008Z,7.93
2023-01-07T05:27:03.971Z,7.43
2023-01-07T05:29:31.935Z,7.33
2023-01-07T05:31:59.904Z,7.07
2023-01-07T05:34:27.801Z,6.33
2023-01-07T05:36:57.076Z,6.70
2023-01-07T05:39:25.833Z,7.47
2023-01-07T05:41:53.771Z,7.93
2023-01-07T05:44:21.688Z,7.03
2023-01-07T05:46:49.607Z,8.13
2023-01-07T05:49:17.619Z,8.33
2023-01-07T05:51:45.590Z,7.20
2023-01-07T05:54:14.929Z,9.30
2023-01-07T05:56:42.919Z,7.90
2023-01-07T05:59:10.851Z,8.87
2023-01-07T06:01:38.800Z,8.93
2023-01-07T06:04:07.657Z,9.97
2023-01-07T06:06:35.616Z,24.93
2023-01-07T06:09:03.552Z,11.13
2023-01-07T06:11:32.864Z,9.13
2023-01-07T06:14:00.833Z,7.60
2023-01-07T06:16:28.769Z,6.60
2023-01-07T06:18:56.756Z,6.40
2023-01-07T06:21:24.694Z,6.50
2023-01-07T06:23:52.630Z,4.87
2023-01-07T06:26:20.570Z,6.97
2023-01-07T06:28:49.872Z,8.00
2023-01-07T06:31:17.875Z,6.17
2023-01-07T06:33:45.958Z,5.63
2023-01-07T06:36:14.319Z,6.90
2023-01-07T06:38:42.689Z,6.43
2023-01-07T06:41:10.615Z,13.23
2023-01-07T06:43:38.561Z,9.77
2023-01-07T06:46:08.120Z,8.70
2023-01-07T06:48:36.191Z,11.30
2023-01-07T06:51:04.140Z,9.67
2023-01-07T06:53:32.326Z,9.73
2023-01-07T06:56:00.259Z,11.97
2023-01-07T06:58:28.206Z,10.23
2023-01-07T07:00:56.175Z,7.60
2023-01-07T07:03:25.521Z,6.80
2023-01-07T07:05:53.479Z,9.27
2023-01-07T07:08:21.449Z,6.57
2023-01-07T07:10:49.438Z,7.23
2023-01-07T07:13:17.320Z,6.53
2023-01-07T07:15:45.343Z,10.07
2023-01-07T07:18:13.338Z,10.00
2023-01-07T07:20:42.669Z,9.40
2023-01-07T07:23:10.590Z,7.77
2023-01-07T07:25:38.545Z,6.80
2023-01-07T07:28:06.487Z,5.30
2023-01-07T07:30:45.683Z,4.10
2023-01-07T07:33:20.010Z,4.07
2023-01-07T07:35:49.428Z,2.80
2023-01-07T07:38:18.081Z,2.90
2023-01-07T07:40:46.214Z,2.63
2023-01-07T07:43:14.179Z,2.50
2023-01-07T07:45:42.149Z,3.10
2023-01-07T07:48:10.239Z,2.97
2023-01-07T07:50:38.213Z,3.43
2023-01-07T07:53:10.199Z,5.07
2023-01-07T07:55:38.565Z,3.10
2023-01-07T07:58:06.526Z,4.27
2023-01-07T08:00:34.447Z,4.60
2023-01-07T08:03:02.474Z,3.60
2023-01-07T08:05:30.615Z,4.90
2023-01-07T08:07:58.766Z,4.30
2023-01-07T08:10:28.620Z,4.27
2023-01-07T08:12:56.533Z,3.13
2023-01-07T08:15:24.462Z,4.03
2023-01-07T08:17:59.320Z,3.50
2023-01-07T08:20:27.267Z,3.80
2023-01-07T08:22:55.219Z,3.23
2023-01-07T08:25:23.153Z,2.20
2023-01-07T08:27:52.479Z,3.17
2023-01-07T08:30:20.616Z,2.57
2023-01-07T08:32:48.595Z,2.83
2023-01-07T08:35:17.136Z,2.40
2023-01-07T08:37:45.459Z,2.63
2023-01-07T08:40:13.840Z,1.93
2023-01-07T08:42:42.012Z,2.90
2023-01-07T08:45:12.836Z,4.63
2023-01-07T08:47:40.736Z,3.13
2023-01-07T08:50:09.257Z,2.93
2023-01-07T08:52:37.179Z,2.80
2023-01-07T08:55:05.608Z,2.63
2023-01-07T08:57:33.598Z,2.57
2023-01-07T09:00:01.554Z,2.70
2023-01-07T09:02:30.990Z,2.80
2023-01-07T09:04:59.046Z,3.13
2023-01-07T09:07:26.956Z,2.67
2023-01-07T09:09:54.901Z,2.90
2023-01-07T09:12:22.817Z,2.93
2023-01-07T09:14:50.748Z,2.80
2023-01-07T09:17:18.740Z,2.97
2023-01-07T09:19:48.074Z,2.50
2023-01-07T09:22:16.011Z,2.60
2023-01-07T09:24:43.938Z,3.07
2023-01-07T09:27:11.876Z,2.23
2023-01-07T09:29:39.877Z,3.20
2023-01-07T09:32:07.822Z,3.03
2023-01-07T09:34:36.077Z,2.60
2023-01-07T09:37:05.395Z,3.50
2023-01-07T09:39:33.338Z,3.00
2023-01-07T09:42:04.778Z,3.70
2023-01-07T09:44:45.767Z,3.60
2023-01-07T09:47:13.990Z,3.13
2023-01-07T09:49:41.936Z,3.10
2023-01-07T09:52:13.322Z,3.33
2023-01-07T09:54:42.073Z,2.83
2023-01-07T09:57:10.351Z,3.23
2023-01-07T09:59:38.336Z,3.60
2023-01-07T10:02:12.603Z,2.60
2023-01-07T10:04:42.858Z,2.13
2023-01-07T10:07:17.769Z,3.17
2023-01-07T10:09:52.267Z,2.90
2023-01-07T10:12:23.442Z,3.23
2023-01-07T10:14:59.190Z,3.40
2023-01-07T10:17:31.264Z,3.23
2023-01-07T10:20:01.283Z,2.80
2023-01-07T10:22:33.073Z,2.93
2023-01-07T10:25:02.705Z,2.53
2023-01-07T10:27:34.408Z,2.33
2023-01-07T10:30:03.985Z,2.40
2023-01-07T10:32:33.229Z,3.17
2023-01-07T10:35:01.725Z,1.97
2023-01-07T10:37:32.551Z,3.50
2023-01-07T10:40:19.418Z,2.77
2023-01-07T10:42:49.923Z,2.53
2023-01-07T10:45:24.479Z,2.73
2023-01-07T10:48:21.320Z,4.90
2023-01-07T10:51:03.504Z,3.20
2023-01-07T10:53:41.713Z,3.40
2023-01-07T10:56:14.898Z,2.93
2023-01-07T10:58:44.878Z,2.63
2023-01-07T11:01:15.202Z,4.20
2023-01-07T11:03:43.613Z,2.70
2023-01-07T11:06:12.955Z,2.97
2023-01-07T11:08:42.973Z,2.70
2023-01-07T11:11:15.148Z,3.37
2023-01-07T11:13:43.453Z,2.50
2023-01-07T11:16:11.936Z,2.80
2023-01-07T11:18:42.260Z,2.30
2023-01-07T11:21:43.456Z,2.30
2023-01-07T11:23:59.530Z,1.70
2023-01-07T11:26:27.931Z,1.90
2023-01-07T11:28:56.532Z,2.67
2023-01-07T11:31:25.296Z,2.10
2023-01-07T11:34:01.935Z,1.87
2023-01-07T11:36:41.767Z,2.40
2023-01-07T11:39:20.241Z,2.33
2023-01-07T11:41:55.908Z,2.50
2023-01-07T11:44:23.849Z,2.70
2023-01-07T11:46:51.835Z,1.87
2023-01-07T11:49:24.422Z,4.07
2023-01-07T11:51:52.360Z,4.93
2023-01-07T11:54:22.961Z,3.40
2023-01-07T11:56:51.640Z,3.23
2023-01-07T11:59:30.236Z,4.10
2023-01-07T12:02:00.135Z,2.23
2023-01-07T12:04:29.479Z,2.20
2023-01-07T12:06:58.305Z,2.93
2023-01-07T12:09:37.917Z,3.23
2023-01-07T12:12:29.844Z,2.70
2023-01-07T12:14:57.848Z,3.00
2023-01-07T12:17:25.761Z,2.37
2023-01-07T12:20:18.562Z,2.13
2023-01-07T12:22:48.288Z,3.07
2023-01-07T12:25:29.871Z,2.97
2023-01-07T12:28:03.771Z,2.00
2023-01-07T12:31:04.071Z,3.43
2023-01-07T12:33:54.832Z,3.10
2023-01-07T12:36:28.350Z,2.20
2023-01-07T12:38:57.483Z,1.60
2023-01-07T12:41:27.635Z,1.60
2023-01-07T12:44:01.563Z,2.47
2023-01-07T12:46:32.137Z,2.40
2023-01-07T12:49:04.933Z,1.57
2023-01-07T12:51:36.283Z,2.00
2023-01-07T12:54:06.524Z,1.90
2023-01-07T12:56:36.891Z,2.73
2023-01-07T12:59:10.391Z,2.27
2023-01-07T13:02:01.064Z,1.60
2023-01-07T13:04:36.691Z,1.50
2023-01-07T13:07:06.694Z,1.90
2023-01-07T13:09:37.980Z,2.77
2023-01-07T13:12:40.683Z,1.77
2023-01-07T13:15:13.592Z,1.80
2023-01-07T13:17:41.802Z,1.93
2023-01-07T13:20:13.390Z,2.87
2023-01-07T13:22:42.314Z,2.30
2023-01-07T13:25:16.878Z,2.27
2023-01-07T13:28:10.439Z,1.67
2023-01-07T13:30:40.296Z,2.47
2023-01-07T13:33:12.225Z,3.03
2023-01-07T13:36:03.362Z,7.17
2023-01-07T13:38:48.786Z,3.93
2023-01-07T13:41:34.505Z,4.80
2023-01-07T13:44:20.787Z,3.00
2023-01-07T13:46:48.761Z,2.13
2023-01-07T13:49:27.122Z,1.87
2023-01-07T13:51:55.149Z,2.40
2023-01-07T13:54:54.351Z,2.53
2023-01-07T13:57:44.388Z,3.03
2023-01-07T14:00:45.628Z,3.07
2023-01-07T14:03:33.039Z,3.27
2023-01-07T14:06:43.282Z,3.13
2023-01-07T14:09:19.397Z,3.10
2023-01-07T14:12:10.327Z,2.90
2023-01-07T14:14:41.412Z,2.90
2023-01-07T14:17:13.672Z,4.87
2023-01-07T14:19:44.410Z,3.40
2023-01-07T14:22:13.695Z,2.83
2023-01-07T14:25:04.409Z,4.20
2023-01-07T14:27:51.936Z,3.23
2023-01-07T14:30:24.159Z,3.60
2023-01-07T14:33:01.292Z,3.80
2023-01-07T14:35:33.021Z,4.00
2023-01-07T14:38:01.085Z,4.30
2023-01-07T14:41:01.335Z,4.70
2023-01-07T14:44:02.201Z,5.00
2023-01-07T14:46:52.058Z,7.10
2023-01-07T14:49:56.090Z,6.87
2023-01-07T14:52:36.452Z,6.70
2023-01-07T14:55:37.469Z,6.20
2023-01-07T14:58:34.633Z,5.70
2023-01-07T15:01:16.934Z,6.00
2023-01-07T15:03:54.228Z,7.63
2023-01-07T15:06:30.402Z,12.77
2023-01-07T15:09:20.786Z,11.93
2023-01-07T15:12:06.818Z,11.50
2023-01-07T15:14:54.710Z,9.60
2023-01-07T15:17:22.899Z,7.50
2023-01-07T15:19:50.796Z,8.57
2023-01-07T15:22:27.427Z,8.17
2023-01-07T15:24:58.337Z,9.60
2023-01-07T15:27:29.988Z,8.60
2023-01-07T15:30:01.851Z,7.07
2023-01-07T15:32:38.379Z,9.80
2023-01-07T15:35:10.532Z,8.30
2023-01-07T15:37:45.460Z,11.13
2023-01-07T15:40:16.896Z,11.07
2023-01-07T15:42:45.631Z,11.00
2023-01-07T15:45:17.200Z,11.10
2023-01-07T15:47:45.227Z,10.70
2023-01-07T15:50:24.348Z,6.70
2023-01-07T15:52:54.385Z,7.90
2023-01-07T15:55:25.366Z,8.87
2023-01-07T15:57:54.105Z,13.30
2023-01-07T16:00:22.596Z,14.80
2023-01-07T16:02:50.515Z,15.20
2023-01-07T16:05:18.654Z,20.37
2023-01-07T16:07:51.010Z,21.40
2023-01-07T16:10:24.661Z,17.10
2023-01-07T16:12:53.446Z,19.10
2023-01-07T16:15:26.240Z,17.27
2023-01-07T16:17:54.458Z,13.30
2023-01-07T16:20:29.301Z,11.50
2023-01-07T16:23:21.495Z,8.83
2023-01-07T16:25:52.775Z,64.70
2023-01-07T16:28:22.197Z,32.73
2023-01-07T16:30:50.138Z,24.57
2023-01-07T16:33:20.330Z,24.80
2023-01-07T16:35:48.457Z,93.10
2023-01-07T16:38:16.714Z,71.77
2023-01-07T16:40:44.677Z,57.00
2023-01-07T16:43:34.231Z,56.43
2023-01-07T16:46:19.096Z,58.10
2023-01-07T16:48:47.165Z,28.27
2023-01-07T16:51:38.541Z,64.57
2023-01-07T16:54:30.569Z,34.97
2023-01-07T16:56:58.903Z,23.80
2023-01-07T16:59:29.556Z,26.37
2023-01-07T17:01:57.521Z,23.90
2023-01-07T17:04:27.891Z,40.53
2023-01-07T17:06:55.937Z,108.43
2023-01-07T17:09:25.098Z,47.80
2023-01-07T17:11:53.477Z,25.67
2023-01-07T17:14:46.474Z,28.90
2023-01-07T17:17:23.841Z,75.77
2023-01-07T17:19:54.627Z,27.37
2023-01-07T17:22:29.463Z,36.90
2023-01-07T17:25:02.858Z,58.30
2023-01-07T17:27:31.033Z,52.07
2023-01-07T17:30:02.349Z,81.80
2023-01-07T17:32:31.247Z,37.50
2023-01-07T17:35:03.463Z,14.97
2023-01-07T17:37:31.448Z,16.43
2023-01-07T17:39:59.485Z,22.00
2023-01-07T17:42:45.968Z,26.20
2023-01-07T17:45:19.470Z,22.07
2023-01-07T17:47:49.547Z,20.87
2023-01-07T17:50:18.612Z,34.97
2023-01-07T17:52:47.137Z,120.43
2023-01-07T17:55:16.345Z,68.57
2023-01-07T17:57:44.334Z,32.23
2023-01-07T18:00:21.010Z,24.97
2023-01-07T18:02:49.117Z,61.70
2023-01-07T18:05:18.565Z,38.83
2023-01-07T18:07:46.508Z,101.90
2023-01-07T18:10:15.779Z,91.10
2023-01-07T18:12:43.650Z,35.73
2023-01-07T18:15:17.953Z,25.90
2023-01-07T18:17:47.398Z,17.77
2023-01-07T18:20:15.624Z,13.80
2023-01-07T18:22:43.822Z,16.37
2023-01-07T18:25:16.333Z,21.57
2023-01-07T18:27:44.266Z,24.60
2023-01-07T18:30:14.692Z,22.30
2023-01-07T18:32:42.919Z,50.43
2023-01-07T18:35:12.372Z,38.13
2023-01-07T18:37:40.402Z,25.43
2023-01-07T18:40:09.319Z,13.77
2023-01-07T18:42:37.324Z,13.03
2023-01-07T18:45:05.924Z,9.43
2023-01-07T18:47:33.851Z,17.67
2023-01-07T18:50:01.820Z,13.63
2023-01-07T18:52:33.225Z,21.20
2023-01-07T18:55:01.169Z,60.87
2023-01-07T18:57:29.140Z,24.30
2023-01-07T18:59:57.101Z,53.57
2023-01-07T19:02:25.042Z,44.13
2023-01-07T19:04:53.025Z,26.47
2023-01-07T19:07:21.754Z,75.10
2023-01-07T19:09:51.045Z,53.53
2023-01-07T19:12:19.119Z,22.67
2023-01-07T19:14:47.081Z,66.37
2023-01-07T19:17:15.011Z,29.93
2023-01-07T19:19:48.438Z,19.00
2023-01-07T19:22:17.004Z,23.53
2023-01-07T19:24:45.050Z,72.50
2023-01-07T19:27:14.394Z,16.43
2023-01-07T19:29:42.338Z,13.90
2023-01-07T19:32:10.293Z,20.93
2023-01-07T19:34:38.203Z,22.10
2023-01-07T19:37:06.175Z,15.03
2023-01-07T19:39:34.146Z,15.33
2023-01-07T19:42:02.100Z,26.67
2023-01-07T19:44:31.408Z,19.23
2023-01-07T19:46:59.406Z,11.10
2023-01-07T19:49:29.315Z,13.13
2023-01-07T19:51:57.749Z,28.47
2023-01-07T19:54:25.781Z,19.80
2023-01-07T19:56:55.802Z,12.10
2023-01-07T19:59:24.013Z,9.23
2023-01-07T20:01:53.797Z,9.10
2023-01-07T20:04:21.982Z,8.77
2023-01-07T20:06:50.618Z,12.77
2023-01-07T20:09:18.812Z,13.77
2023-01-07T20:11:46.786Z,10.80
2023-01-07T20:14:14.960Z,20.90
2023-01-07T20:16:43.012Z,13.50
2023-01-07T20:19:12.619Z,13.97
2023-01-07T20:21:40.656Z,81.37
2023-01-07T20:24:09.402Z,47.87
2023-01-07T20:26:38.276Z,42.80
2023-01-07T20:29:06.364Z,21.23
2023-01-07T20:31:34.372Z,18.20
2023-01-07T20:34:02.326Z,24.00
2023-01-07T20:36:32.111Z,15.27
2023-01-07T20:39:05.216Z,12.17
2023-01-07T20:41:33.415Z,10.13
2023-01-07T20:44:02.280Z,9.13
2023-01-07T20:46:30.803Z,8.47
2023-01-07T20:48:59.509Z,9.70
2023-01-07T20:51:27.675Z,8.17
2023-01-07T20:53:56.959Z,9.20
2023-01-07T20:56:26.184Z,16.93
2023-01-07T20:58:54.135Z,20.00
2023-01-07T21:01:22.664Z,18.43
2023-01-07T21:03:50.706Z,14.50
2023-01-07T21:06:19.655Z,12.20
2023-01-07T21:08:48.016Z,10.07
2023-01-07T21:11:18.281Z,6.53
2023-01-07T21:13:46.304Z,7.30
2023-01-07T21:16:14.316Z,9.80
2023-01-07T21:18:42.429Z,8.07
2023-01-07T21:21:11.486Z,7.43
2023-01-07T21:23:39.397Z,7.13
2023-01-07T21:26:07.527Z,7.87
2023-01-07T21:28:36.983Z,8.37
2023-01-07T21:31:08.757Z,8.27
2023-01-07T21:33:36.879Z,9.23
2023-01-07T21:36:08.269Z,7.80
2023-01-07T21:38:36.255Z,9.13
2023-01-07T21:41:07.456Z,7.57
2023-01-07T21:43:36.793Z,8.67
2023-01-07T21:46:05.378Z,10.80
2023-01-07T21:48:34.018Z,14.17
2023-01-07T21:51:03.883Z,12.70
2023-01-07T21:53:32.202Z,12.10
2023-01-07T21:56:05.157Z,10.60
2023-01-07T21:58:33.090Z,11.70
2023-01-07T22:01:02.514Z,10.67
2023-01-07T22:03:30.528Z,14.43
2023-01-07T22:05:58.990Z,14.70
2023-01-07T22:08:27.211Z,14.77
2023-01-07T22:10:55.193Z,14.77
2023-01-07T22:13:23.205Z,14.27
2023-01-07T22:15:51.189Z,12.37
2023-01-07T22:18:20.517Z,13.93
2023-01-07T22:20:54.219Z,14.40
2023-01-07T22:23:22.195Z,15.67
2023-01-07T22:25:50.176Z,15.20
2023-01-07T22:28:18.381Z,14.03
2023-01-07T22:30:49.812Z,16.80
2023-01-07T22:33:17.739Z,14.80
2023-01-07T22:35:48.126Z,15.07
2023-01-07T22:38:16.065Z,11.30
2023-01-07T22:40:44.036Z,12.50
2023-01-07T22:43:13.808Z,12.90
2023-01-07T22:45:43.229Z,11.43
2023-01-07T22:48:12.741Z,12.00
2023-01-07T22:50:40.726Z,13.50
2023-01-07T22:53:10.072Z,14.57
2023-01-07T22:55:38.016Z,14.43
2023-01-07T22:58:05.955Z,14.90
2023-01-07T23:00:41.101Z,13.00
2023-01-07T23:03:09.082Z,14.87
2023-01-07T23:05:37.943Z,15.90
2023-01-07T23:08:06.331Z,23.30
2023-01-07T23:10:36.646Z,21.80
2023-01-07T23:13:04.642Z,18.47
2023-01-07T23:15:32.847Z,20.10
2023-01-07T23:18:00.777Z,24.53
2023-01-07T23:20:28.758Z,23.17
2023-01-07T23:22:56.744Z,23.33
2023-01-07T23:25:24.660Z,24.10
2023-01-07T23:27:53.972Z,23.80
2023-01-07T23:30:22.735Z,20.03
2023-01-07T23:32:50.751Z,23.60
2023-01-07T23:35:18.887Z,23.73
2023-01-07T23:37:46.831Z,20.60
2023-01-07T23:40:14.796Z,25.70
2023-01-07T23:42:42.764Z,27.70
2023-01-07T23:45:12.851Z,20.40
2023-01-07T23:47:40.809Z,20.67
2023-01-07T23:50:09.684Z,24.40
2023-01-07T23:52:37.649Z,32.13
2023-01-07T23:55:06.371Z,40.77
2023-01-07T23:57:34.402Z,35.40
